Mendota, IL

2:17 PM CDT on August 23, 2014 (GMT -0500)
Illinois Valley Regional-Duncan | Change Station
CLOSE
Current Station
Airport
Location: Peru,
Elevation: 653 ft
Nearby Weather Stations

Elev 653 ft 41.35 °N, 89.15 °W | Updated 22 minutes ago

Scattered Clouds
Scattered Clouds
71 °F
Feels Like 71 °F
N
6
Wind Variable Wind from SSE

Today
High -- | Low -- °F
--% Chance of Precip.
Yesterday
High -- | Low -- °F
Precip. -- in
6:13 AM 7:43 PM
Waning Crescent, 3% visible
Pressure 29.97 in
Visibility 10.0 miles
Clouds Scattered Clouds 9000 ft
Dew Point 69 °F
Humidity 95%
Rainfall 0.91 in
Snow Depth Not available.
UV 7 out of 12
Pollen 6.50 out of 12
Air Quality Not available.
Flu Activity Not available.
METAR KVYS 231855Z AUTO 15005KT 10SM SCT090 22/21 A2997 RMK AO2 LTG DSNT NE AND SE P0002 T02150207

More Conditions Fewer Conditions

Pressure 29.97 in
Visibility 10.0 miles
Clouds Scattered Clouds 9000 ft
Dew Point 69 °F
Humidity 95%
Rainfall 0.91 in
Snow Depth Not available.
UV 7 out of 12
Pollen 6.50 out of 12
Air Quality Not available.
Flu Activity Not available.
METAR KVYS 231855Z AUTO 15005KT 10SM SCT090 22/21 A2997 RMK AO2 LTG DSNT NE AND SE P0002 T02150207

More Conditions Fewer Conditions

10-Day Weather Forecast

Almanac

Astronomy

Aug. 23, 2014 Rise Set
Actual Time 6:13 AM CDT 7:43 PM CDT
Civil Twilight 5:44 AM CDT 8:12 PM CDT
Nautical Twilight 5:09 AM CDT 8:47 PM CDT
Astronomical Twilight 4:31 AM CDT 9:25 PM CDT
Moon 4:28 AM CDT 6:28 PM CDT
Length of Visible Light 14h 28m
Length of Day
13h 30m
Tomorrow will be 2m 34s shorter.
Waning Crescent, 3% of the Moon is Illuminated
Today
Waning Crescent
Aug 25
New
Sep 2
First Quarter
Sep 8
Full
Sep 15
Last Quarter

Today's Extremes

State Highs State Lows

Community

WunderPhotos

Upload Photos

1,746,585 photos uploaded!

WunderBlogs® & News

Nearby

Snow Depth

Station Depth Elevation
No new snow has been reported.

Earthquake Activity

City Distance Mag. Time & Date
No recent earthquake activity has been reported nearby.
Minimum magnitude displayed is 2.5.

Coastal Water Temperatures

Place Temperature
No Stations Reporting

Nearby Weather Stations